Time;durP1;ratioP1;P1;durP2;ratioP2;P2;SDS_P1;SDS_P2;PMS_P1;PMS_P2;Temp;Humidity;BMP_temperature;BMP_pressure;BME280_temperature;BME280_humidity;BME280_pressure;Samples;Min_cycle;Max_cycle;Signal;HPM_P1;HPM_P2
2023/04/22 00:01:09;;;;;;;15.32;7.57;;;;;;;6.54;100.00;98099.47;2578955;28;20096;-81
2023/04/22 00:02:25;;;;;;;17.48;7.07;;;;;;;6.60;100.00;98099.38;2579941;28;20043;-81
2023/04/22 00:03:43;;;;;;;14.48;7.40;;;;;;;6.50;100.00;98098.66;2578985;28;20050;-81
2023/04/22 00:05:00;;;;;;;11.27;7.03;;;;;;;6.27;100.00;98097.28;2578417;28;20077;-81
2023/04/22 00:06:16;;;;;;;13.35;7.45;;;;;;;6.45;100.00;98092.69;2578509;28;20050;-81
2023/04/22 00:07:32;;;;;;;12.35;6.90;;;;;;;6.56;100.00;98097.72;2579266;28;20612;-81
2023/04/22 00:08:48;;;;;;;10.60;6.75;;;;;;;6.61;100.00;98098.47;2578943;28;20046;-81
2023/04/22 00:10:04;;;;;;;15.40;7.43;;;;;;;6.53;100.00;98096.00;2579044;28;20046;-81
2023/04/22 00:11:20;;;;;;;10.35;6.70;;;;;;;6.39;100.00;98095.38;2578486;28;20058;-81
2023/04/22 00:12:36;;;;;;;13.98;7.30;;;;;;;6.07;100.00;98095.88;2579337;28;20054;-81
2023/04/22 00:13:51;;;;;;;13.00;6.68;;;;;;;5.68;100.00;98094.72;2579008;28;20054;-81
2023/04/22 00:15:08;;;;;;;11.82;7.25;;;;;;;5.90;100.00;98097.84;2579156;28;20089;-81
2023/04/22 00:16:25;;;;;;;12.65;6.97;;;;;;;5.96;100.00;98089.94;2579058;28;20050;-81
2023/04/22 00:17:41;;;;;;;16.40;8.38;;;;;;;6.10;100.00;98082.00;2578886;28;20976;-81
2023/04/22 00:18:57;;;;;;;12.85;7.20;;;;;;;6.23;100.00;98087.84;2578722;28;20136;-81
2023/04/22 00:20:13;;;;;;;15.63;7.75;;;;;;;6.34;100.00;98093.72;2579276;28;20512;-81
2023/04/22 00:21:29;;;;;;;13.48;7.55;;;;;;;6.44;100.00;98096.19;2579242;28;20082;-81
2023/04/22 00:22:44;;;;;;;16.80;7.88;;;;;;;6.42;100.00;98092.72;2579429;28;20429;-81
2023/04/22 00:24:00;;;;;;;15.00;7.65;;;;;;;6.38;100.00;98091.06;2579024;28;20112;-81
2023/04/22 00:25:16;;;;;;;13.82;7.78;;;;;;;6.21;100.00;98094.81;2579146;28;20129;-81
2023/04/22 00:26:32;;;;;;;14.60;8.80;;;;;;;6.26;100.00;98098.19;2578924;28;20064;-82
2023/04/22 00:27:47;;;;;;;13.43;7.88;;;;;;;6.40;100.00;98099.69;2579075;28;20406;-82
2023/04/22 00:29:03;;;;;;;15.30;7.63;;;;;;;6.44;100.00;98101.38;2578833;28;20038;-81
2023/04/22 00:30:19;;;;;;;16.33;8.05;;;;;;;6.48;100.00;98093.47;2576408;28;20057;-81
2023/04/22 00:31:34;;;;;;;18.55;8.00;;;;;;;6.26;100.00;98090.38;2578253;28;20054;-81
2023/04/22 00:32:50;;;;;;;14.27;7.47;;;;;;;6.30;100.00;98091.19;2577898;28;20046;-81
2023/04/22 00:34:05;;;;;;;16.05;8.00;;;;;;;6.36;100.00;98094.56;2579290;28;20133;-81
2023/04/22 00:35:21;;;;;;;14.18;8.00;;;;;;;6.20;100.00;98093.09;2578402;28;20058;-81
2023/04/22 00:36:37;;;;;;;16.17;8.60;;;;;;;6.31;100.00;98091.19;2579180;28;20046;-81
2023/04/22 00:37:52;;;;;;;18.95;8.35;;;;;;;5.92;100.00;98090.88;2578599;28;20050;-81
2023/04/22 00:39:08;;;;;;;13.13;8.07;;;;;;;6.07;100.00;98093.28;2578911;28;20050;-81
2023/04/22 00:40:24;;;;;;;13.52;7.90;;;;;;;5.81;100.00;98091.06;2578731;28;20061;-81
2023/04/22 00:41:39;;;;;;;14.93;8.45;;;;;;;5.79;100.00;98093.66;2579238;28;20054;-81
2023/04/22 00:42:55;;;;;;;13.77;7.93;;;;;;;5.94;100.00;98096.91;2578571;28;20058;-81
2023/04/22 00:44:11;;;;;;;14.65;7.93;;;;;;;6.06;100.00;98088.97;2578846;28;20057;-81
2023/04/22 00:45:27;;;;;;;12.57;7.78;;;;;;;5.95;100.00;98088.25;2578465;28;20042;-81
2023/04/22 00:46:44;;;;;;;15.50;7.68;;;;;;;6.07;100.00;98095.00;2579214;28;20089;-81
2023/04/22 00:48:00;;;;;;;13.18;7.88;;;;;;;6.06;100.00;98090.69;2577819;28;20061;-81
2023/04/22 00:49:16;;;;;;;13.88;8.05;;;;;;;6.04;100.00;98093.34;2578671;28;20137;-81
2023/04/22 00:50:31;;;;;;;13.52;7.95;;;;;;;5.96;100.00;98095.16;2578351;28;20557;-81
2023/04/22 00:51:47;;;;;;;14.63;7.65;;;;;;;5.81;100.00;98091.06;2579116;28;20030;-81
2023/04/22 00:53:02;;;;;;;14.13;8.23;;;;;;;5.85;100.00;98087.53;2578577;28;20046;-81
2023/04/22 00:54:18;;;;;;;13.13;7.35;;;;;;;5.84;100.00;98093.59;2578981;28;20133;-81
2023/04/22 00:55:34;;;;;;;15.20;7.43;;;;;;;5.35;100.00;98092.53;2578696;28;20046;-81
2023/04/22 00:56:50;;;;;;;15.07;7.97;;;;;;;5.57;100.00;98093.09;2579055;28;20050;-81
2023/04/22 00:58:05;;;;;;;16.65;8.35;;;;;;;5.76;100.00;98090.25;2578219;28;20252;-81
2023/04/22 00:59:22;;;;;;;13.32;8.20;;;;;;;5.74;100.00;98089.41;2579000;28;20054;-81
2023/04/22 01:00:38;;;;;;;18.50;8.40;;;;;;;5.75;100.00;98091.13;2578471;28;20101;-81
2023/04/22 01:01:55;;;;;;;11.82;7.53;;;;;;;5.66;100.00;98089.53;2578470;28;20058;-81
2023/04/22 01:03:11;;;;;;;14.77;8.00;;;;;;;5.58;100.00;98088.75;2578509;28;20046;-81
2023/04/22 01:04:26;;;;;;;15.55;7.43;;;;;;;5.60;100.00;98085.25;2578355;28;20100;-81
2023/04/22 01:05:42;;;;;;;13.65;7.95;;;;;;;5.57;100.00;98087.03;2578886;28;20058;-81
2023/04/22 01:07:00;;;;;;;15.07;7.68;;;;;;;5.64;100.00;98099.06;2578514;28;20069;-81
2023/04/22 01:08:16;;;;;;;12.32;7.72;;;;;;;5.53;100.00;98094.03;2578193;28;20061;-81
2023/04/22 01:09:32;;;;;;;12.85;7.38;;;;;;;5.54;100.00;98100.06;2578397;28;20085;-81
2023/04/22 01:10:47;;;;;;;12.05;7.68;;;;;;;5.51;100.00;98096.63;2578936;28;20054;-81
2023/04/22 01:12:03;;;;;;;13.27;7.90;;;;;;;5.55;100.00;98099.19;2577308;28;20042;-81
2023/04/22 01:13:19;;;;;;;15.55;8.20;;;;;;;5.65;100.00;98098.19;2578440;28;20120;-81
2023/04/22 01:14:34;;;;;;;16.95;7.97;;;;;;;5.67;100.00;98098.19;2578282;28;20046;-81
2023/04/22 01:15:52;;;;;;;12.65;8.10;;;;;;;5.71;100.00;98100.69;2578920;28;20050;-81
2023/04/22 01:17:09;;;;;;;12.50;7.50;;;;;;;5.72;100.00;98104.16;2578107;28;20521;-81
2023/04/22 01:18:25;;;;;;;12.60;7.63;;;;;;;5.66;100.00;98102.50;2578628;28;20047;-81
2023/04/22 01:19:42;;;;;;;13.60;7.68;;;;;;;5.59;100.00;98104.31;2577331;28;20102;-81
2023/04/22 01:20:57;;;;;;;17.27;8.50;;;;;;;5.65;100.00;98096.44;2578307;28;20159;-81
2023/04/22 01:22:13;;;;;;;14.32;8.30;;;;;;;5.64;100.00;98093.88;2577811;28;20050;-81
2023/04/22 01:23:29;;;;;;;11.23;7.38;;;;;;;5.56;100.00;98096.59;2578596;28;20506;-81
2023/04/22 01:24:45;;;;;;;14.23;7.53;;;;;;;5.51;100.00;98094.03;2578257;28;20081;-82
2023/04/22 01:26:01;;;;;;;12.20;7.40;;;;;;;5.07;100.00;98092.84;2578579;28;20437;-81
2023/04/22 01:27:16;;;;;;;11.40;7.38;;;;;;;5.22;100.00;98097.88;2577312;28;20073;-81
2023/04/22 01:28:32;;;;;;;13.45;7.55;;;;;;;5.35;100.00;98092.53;2578149;28;20089;-81
2023/04/22 01:29:48;;;;;;;14.00;8.10;;;;;;;5.39;100.00;98093.34;2578183;28;20054;-81
2023/04/22 01:31:03;;;;;;;14.57;7.68;;;;;;;5.36;100.00;98100.28;2578851;28;20042;-81
2023/04/22 01:32:19;;;;;;;15.18;8.40;;;;;;;5.32;100.00;98092.56;2578066;28;20065;-81
2023/04/22 01:33:35;;;;;;;13.40;7.75;;;;;;;5.31;100.00;98090.84;2578720;28;20569;-81
2023/04/22 01:34:51;;;;;;;16.63;7.97;;;;;;;5.38;100.00;98092.47;2578135;28;20442;-81
2023/04/22 01:36:07;;;;;;;14.25;7.75;;;;;;;5.31;100.00;98088.25;2577831;28;20112;-81
2023/04/22 01:37:22;;;;;;;12.88;7.05;;;;;;;5.34;100.00;98088.22;2578678;28;20101;-81
2023/04/22 01:38:39;;;;;;;12.10;7.65;;;;;;;5.23;100.00;98093.50;2578315;28;20050;-81
2023/04/22 01:39:57;;;;;;;17.83;8.27;;;;;;;4.85;100.00;98092.25;2578404;28;20050;-80
2023/04/22 01:41:13;;;;;;;11.85;7.05;;;;;;;4.53;100.00;98091.66;2578133;28;20572;-81
2023/04/22 01:42:30;;;;;;;17.98;8.38;;;;;;;4.57;100.00;98089.91;2578717;28;20169;-80
2023/04/22 01:43:46;;;;;;;13.35;7.57;;;;;;;4.75;100.00;98083.66;2577817;28;20058;-81
2023/04/22 01:45:01;;;;;;;14.07;8.40;;;;;;;4.88;100.00;98082.66;2578608;28;20528;-80
2023/04/22 01:46:17;;;;;;;17.35;8.38;;;;;;;5.03;100.00;98083.38;2578080;28;20132;-82
2023/04/22 01:47:33;;;;;;;15.38;8.48;;;;;;;5.05;100.00;98085.06;2578654;28;20497;-81
2023/04/22 01:48:51;;;;;;;15.93;8.10;;;;;;;5.13;100.00;98086.75;2578009;28;20046;-81
2023/04/22 01:50:07;;;;;;;12.73;7.93;;;;;;;5.01;100.00;98090.31;2578508;28;20042;-80
2023/04/22 01:51:23;;;;;;;12.73;8.25;;;;;;;5.11;100.00;98088.50;2577950;28;20081;-80
2023/04/22 01:52:38;;;;;;;17.63;8.50;;;;;;;5.23;100.00;98089.19;2578365;28;20050;-81
2023/04/22 01:53:54;;;;;;;18.60;8.27;;;;;;;5.29;100.00;98092.59;2578106;28;20488;-81
2023/04/22 01:55:09;;;;;;;18.65;8.80;;;;;;;5.27;100.00;98089.16;2578365;28;20130;-81
2023/04/22 01:56:25;;;;;;;17.02;9.43;;;;;;;5.40;100.00;98084.69;2578179;28;20051;-81
2023/04/22 01:57:41;;;;;;;17.58;8.27;;;;;;;5.39;100.00;98090.75;2578494;28;20435;-81
2023/04/22 01:58:56;;;;;;;18.40;8.55;;;;;;;5.40;100.00;98090.72;2577885;28;20490;-81
2023/04/22 02:00:12;;;;;;;15.38;7.75;;;;;;;5.33;100.00;98094.28;2578355;28;20086;-81
2023/04/22 02:01:28;;;;;;;15.98;9.02;;;;;;;5.39;100.00;98090.75;2578064;28;20081;-81
2023/04/22 02:02:43;;;;;;;16.23;8.13;;;;;;;5.41;100.00;98087.25;2578509;28;20053;-81
2023/04/22 02:03:59;;;;;;;15.18;8.60;;;;;;;5.38;100.00;98087.28;2577916;28;20054;-81
2023/04/22 02:05:15;;;;;;;13.35;7.93;;;;;;;5.35;100.00;98088.19;2578345;28;20145;-81
2023/04/22 02:06:31;;;;;;;14.60;7.38;;;;;;;4.93;100.00;98083.50;2577886;28;20054;-81
2023/04/22 02:07:51;;;;;;;15.00;8.27;;;;;;;4.84;100.00;98090.53;2578605;28;20560;-81
2023/04/22 02:09:06;;;;;;;13.93;7.90;;;;;;;4.84;100.00;98090.53;2577760;28;20053;-81
2023/04/22 02:10:22;;;;;;;12.23;7.30;;;;;;;4.74;100.00;98085.41;2578204;28;21014;-81
2023/04/22 02:11:38;;;;;;;16.40;8.10;;;;;;;4.90;100.00;98080.94;2578143;28;20054;-81
2023/04/22 02:12:53;;;;;;;16.25;8.63;;;;;;;5.11;100.00;98088.50;2577720;28;20101;-81
2023/04/22 02:14:09;;;;;;;11.48;7.18;;;;;;;5.07;100.00;98082.47;2578587;28;20046;-81
2023/04/22 02:15:25;;;;;;;16.23;7.68;;;;;;;5.00;100.00;98091.19;2577800;28;20047;-81
2023/04/22 02:16:41;;;;;;;11.32;7.35;;;;;;;4.97;100.00;98088.63;2578495;28;20474;-81
2023/04/22 02:17:57;;;;;;;13.27;7.75;;;;;;;4.66;100.00;98076.84;2577986;28;20136;-81
2023/04/22 02:19:12;;;;;;;14.35;7.90;;;;;;;4.67;100.00;98078.56;2578109;28;20054;-81
2023/04/22 02:20:28;;;;;;;13.57;7.40;;;;;;;4.74;100.00;98076.75;2577624;28;20079;-81
2023/04/22 02:21:43;;;;;;;13.82;7.32;;;;;;;4.82;100.00;98080.16;2578579;28;20054;-81
2023/04/22 02:22:59;;;;;;;13.02;7.63;;;;;;;4.84;100.00;98074.97;2577634;28;20046;-81
2023/04/22 02:24:15;;;;;;;19.85;8.88;;;;;;;4.84;100.00;98081.00;2578254;28;20046;-81
2023/04/22 02:25:31;;;;;;;17.98;8.38;;;;;;;4.94;100.00;98077.44;2577806;28;20085;-81
2023/04/22 02:26:47;;;;;;;14.23;8.02;;;;;;;4.84;100.00;98083.59;2578459;28;20050;-81
2023/04/22 02:28:03;;;;;;;13.68;7.60;;;;;;;4.67;100.00;98094.13;2577791;28;20457;-81
2023/04/22 02:29:19;;;;;;;15.15;8.27;;;;;;;4.68;100.00;98084.63;2578282;28;20070;-81
2023/04/22 02:30:34;;;;;;;15.90;9.48;;;;;;;4.79;100.00;98085.38;2577591;28;20053;-81
2023/04/22 02:31:50;;;;;;;16.63;7.57;;;;;;;4.87;100.00;98086.13;2578516;28;20149;-81
2023/04/22 02:33:05;;;;;;;14.93;7.90;;;;;;;5.02;100.00;98089.44;2577666;28;20042;-81
2023/04/22 02:34:21;;;;;;;12.05;7.55;;;;;;;5.00;100.00;98086.00;2578173;28;20402;-80
2023/04/22 02:35:37;;;;;;;11.88;7.30;;;;;;;4.92;100.00;98079.19;2576634;28;20537;-80
2023/04/22 02:36:52;;;;;;;15.52;7.85;;;;;;;4.98;100.00;98087.75;2577781;28;20121;-81
2023/04/22 02:38:09;;;;;;;11.95;7.32;;;;;;;4.88;100.00;98090.44;2577707;28;20058;-82
2023/04/22 02:39:25;;;;;;;13.48;7.65;;;;;;;4.83;100.00;98087.06;2578397;28;20049;-80
2023/04/22 02:40:40;;;;;;;11.70;7.53;;;;;;;4.81;100.00;98083.63;2577587;28;20085;-81
2023/04/22 02:41:56;;;;;;;12.43;7.32;;;;;;;4.68;100.00;98082.03;2578319;28;20050;-80
2023/04/22 02:43:11;;;;;;;12.65;7.20;;;;;;;4.41;100.00;98090.06;2577782;28;20185;-81
2023/04/22 02:44:27;;;;;;;13.57;8.23;;;;;;;4.47;100.00;98084.81;2577752;28;20085;-81
2023/04/22 02:45:42;;;;;;;13.90;7.60;;;;;;;4.42;100.00;98086.59;2578309;28;20387;-81
2023/04/22 02:46:58;;;;;;;13.65;7.82;;;;;;;4.41;100.00;98089.19;2577471;28;20620;-81
2023/04/22 02:48:14;;;;;;;14.00;7.93;;;;;;;4.43;100.00;98084.84;2578155;28;20069;-81
2023/04/22 02:49:29;;;;;;;15.20;7.95;;;;;;;4.42;100.00;98083.13;2578060;28;20057;-80
2023/04/22 02:50:45;;;;;;;15.13;7.90;;;;;;;4.52;100.00;98079.59;2577969;28;20401;-80
2023/04/22 02:52:00;;;;;;;11.00;7.20;;;;;;;4.24;100.00;98083.25;2577760;28;20518;-80
2023/04/22 02:53:16;;;;;;;11.20;7.57;;;;;;;3.96;100.00;98088.66;2578422;28;20046;-81
2023/04/22 02:54:31;;;;;;;12.50;7.65;;;;;;;3.92;100.00;98084.38;2577446;28;20054;-81
2023/04/22 02:55:47;;;;;;;12.00;7.57;;;;;;;4.02;100.00;98081.72;2578326;28;20074;-81
2023/04/22 02:57:03;;;;;;;12.57;8.00;;;;;;;3.95;100.00;98080.91;2577539;28;20134;-81
2023/04/22 02:58:18;;;;;;;12.68;7.70;;;;;;;3.94;100.00;98081.78;2578116;28;20051;-81
2023/04/22 02:59:35;;;;;;;14.55;8.05;;;;;;;4.00;100.00;98081.72;2577763;28;20521;-81
2023/04/22 03:00:51;;;;;;;14.63;8.35;;;;;;;3.96;100.00;98082.63;2577873;28;20054;-82
2023/04/22 03:02:08;;;;;;;13.52;7.78;;;;;;;4.05;100.00;98080.00;2577665;28;20081;-81
2023/04/22 03:03:25;;;;;;;17.05;7.88;;;;;;;4.15;100.00;98080.78;2578254;28;20548;-80
2023/04/22 03:04:41;;;;;;;16.30;8.07;;;;;;;4.18;100.00;98080.75;2577627;28;20054;-80
2023/04/22 03:05:56;;;;;;;15.05;8.15;;;;;;;4.22;100.00;98079.00;2577336;28;20422;-80
2023/04/22 03:07:12;;;;;;;13.15;7.88;;;;;;;4.28;100.00;98075.50;2577134;28;20378;-81
2023/04/22 03:08:27;;;;;;;16.77;8.20;;;;;;;4.27;100.00;98077.22;2578193;28;20058;-80
2023/04/22 03:09:43;;;;;;;12.90;7.45;;;;;;;4.33;100.00;98074.56;2577564;28;20053;-80
2023/04/22 03:10:59;;;;;;;15.13;9.00;;;;;;;4.29;100.00;98069.44;2577817;28;20585;-80
2023/04/22 03:12:14;;;;;;;15.85;8.15;;;;;;;4.38;100.00;98071.91;2577719;28;20050;-81
2023/04/22 03:13:30;;;;;;;13.93;8.35;;;;;;;4.14;100.00;98067.81;2578112;28;20057;-82
2023/04/22 03:14:46;;;;;;;14.70;8.38;;;;;;;4.28;100.00;98071.16;2577601;28;20516;-79
2023/04/22 03:16:01;;;;;;;18.13;9.15;;;;;;;4.09;100.00;98070.44;2578078;28;20450;-81
2023/04/22 03:17:16;;;;;;;16.67;9.73;;;;;;;4.24;100.00;98072.06;2577698;28;20489;-79
2023/04/22 03:18:32;;;;;;;17.60;9.45;;;;;;;4.45;100.00;98065.81;2577442;28;20046;-79
2023/04/22 03:19:48;;;;;;;16.08;8.23;;;;;;;4.30;100.00;98065.97;2578345;28;20050;-82
2023/04/22 03:21:03;;;;;;;15.25;8.43;;;;;;;4.24;100.00;98070.31;2577420;28;20050;-79
2023/04/22 03:22:19;;;;;;;16.10;8.88;;;;;;;4.14;100.00;98060.91;2577930;28;20137;-80
2023/04/22 03:23:35;;;;;;;14.25;8.35;;;;;;;4.10;100.00;98061.78;2577482;28;20596;-80
2023/04/22 03:24:50;;;;;;;18.48;9.68;;;;;;;4.15;100.00;98064.34;2578136;28;20425;-79
2023/04/22 03:26:06;;;;;;;16.33;9.15;;;;;;;4.24;100.00;98070.31;2577480;28;20120;-79
2023/04/22 03:27:21;;;;;;;18.08;9.25;;;;;;;4.32;100.00;98072.84;2577850;28;20050;-79
2023/04/22 03:28:37;;;;;;;14.60;8.05;;;;;;;4.41;100.00;98064.13;2577436;28;20057;-79
2023/04/22 03:29:53;;;;;;;16.17;8.98;;;;;;;4.38;100.00;98059.84;2578148;28;20047;-79
2023/04/22 03:31:08;;;;;;;16.23;8.38;;;;;;;4.44;100.00;98068.41;2578069;28;20047;-81
2023/04/22 03:32:24;;;;;;;13.93;8.20;;;;;;;4.37;100.00;98060.72;2579863;28;20050;-79
2023/04/22 03:33:40;;;;;;;14.27;8.20;;;;;;;3.95;100.00;98071.41;2579471;28;20057;-79
2023/04/22 03:34:55;;;;;;;14.63;8.18;;;;;;;4.00;100.00;98066.19;2579534;28;20046;-79
2023/04/22 03:36:11;;;;;;;13.95;8.00;;;;;;;4.12;100.00;98059.19;2579176;28;20455;-83
2023/04/22 03:37:27;;;;;;;14.68;7.80;;;;;;;4.23;100.00;98062.56;2579688;28;20058;-82
2023/04/22 03:38:42;;;;;;;16.63;7.30;;;;;;;4.11;100.00;98066.09;2579112;28;20054;-82
2023/04/22 03:39:58;;;;;;;12.45;7.53;;;;;;;4.09;100.00;98055.78;2579726;28;20062;-82
2023/04/22 03:41:13;;;;;;;13.07;7.38;;;;;;;4.22;100.00;98058.25;2579172;28;20081;-82
2023/04/22 03:42:29;;;;;;;15.75;8.23;;;;;;;4.29;100.00;98061.66;2579620;28;20075;-82
2023/04/22 03:43:44;;;;;;;13.48;8.25;;;;;;;4.33;100.00;98059.03;2579225;28;20050;-81
2023/04/22 03:45:00;;;;;;;14.05;8.23;;;;;;;4.31;100.00;98067.69;2579635;28;20084;-79
2023/04/22 03:46:16;;;;;;;14.00;8.80;;;;;;;4.19;100.00;98061.72;2578975;28;20050;-79
2023/04/22 03:47:31;;;;;;;15.15;8.40;;;;;;;3.96;100.00;98061.91;2578881;28;20577;-79
2023/04/22 03:48:47;;;;;;;14.30;8.15;;;;;;;3.91;100.00;98066.25;2579316;28;20050;-79
2023/04/22 03:50:03;;;;;;;13.75;7.72;;;;;;;4.09;100.00;98063.53;2579038;28;20046;-80
2023/04/22 03:51:18;;;;;;;13.50;8.13;;;;;;;4.19;100.00;98063.44;2579615;28;20060;-79
2023/04/22 03:52:34;;;;;;;11.55;7.30;;;;;;;4.05;100.00;98064.44;2578211;28;20194;-79
2023/04/22 03:53:49;;;;;;;12.52;6.85;;;;;;;4.15;100.00;98061.75;2579066;28;20383;-79
2023/04/22 03:55:05;;;;;;;13.52;7.40;;;;;;;4.16;100.00;98064.34;2578876;28;20379;-80
2023/04/22 03:56:23;;;;;;;16.08;8.13;;;;;;;4.15;100.00;98066.94;2579402;28;20585;-79
2023/04/22 03:57:38;;;;;;;14.35;8.00;;;;;;;4.18;100.00;98066.91;2578937;28;20061;-79
2023/04/22 03:58:54;;;;;;;14.38;8.32;;;;;;;4.05;100.00;98068.75;2578523;28;20047;-80
2023/04/22 04:00:10;;;;;;;17.35;8.43;;;;;;;4.12;100.00;98072.16;2578423;28;20506;-80
2023/04/22 04:01:26;;;;;;;12.75;8.40;;;;;;;4.14;100.00;98070.41;2579246;28;20108;-79
2023/04/22 04:02:42;;;;;;;16.08;8.50;;;;;;;4.19;100.00;98071.22;2578973;28;20638;-79
2023/04/22 04:03:58;;;;;;;13.25;8.32;;;;;;;4.04;100.00;98069.63;2579632;28;20592;-79
2023/04/22 04:05:13;;;;;;;14.95;8.60;;;;;;;4.08;100.00;98072.19;2578963;28;20046;-80
2023/04/22 04:06:29;;;;;;;18.58;9.10;;;;;;;4.03;100.00;98066.16;2579300;28;20050;-79
2023/04/22 04:07:45;;;;;;;14.30;8.25;;;;;;;4.17;100.00;98070.38;2578685;28;20506;-79
2023/04/22 04:09:00;;;;;;;13.95;8.65;;;;;;;4.26;100.00;98066.84;2579447;28;20050;-80
2023/04/22 04:10:16;;;;;;;17.05;8.73;;;;;;;4.22;100.00;98069.47;2578633;28;20058;-80
2023/04/22 04:11:32;;;;;;;13.32;8.18;;;;;;;4.35;100.00;98071.94;2579263;28;21260;-79
2023/04/22 04:12:47;;;;;;;13.38;8.05;;;;;;;4.28;100.00;98070.31;2578192;28;20054;-79
2023/04/22 04:14:02;;;;;;;16.00;8.88;;;;;;;4.03;100.00;98063.56;2578867;28;20050;-80
2023/04/22 04:15:20;;;;;;;20.90;9.65;;;;;;;3.80;100.00;98074.97;2578920;28;20061;-80
2023/04/22 04:16:35;;;;;;;22.35;10.75;;;;;;;4.03;100.00;98063.56;2579070;28;20061;-79
2023/04/22 04:17:51;;;;;;;24.48;11.77;;;;;;;4.10;100.00;98065.25;2578512;28;20058;-80
2023/04/22 04:19:06;;;;;;;18.13;9.68;;;;;;;3.80;100.00;98063.75;2579285;28;20138;-80
2023/04/22 04:20:22;;;;;;;16.02;9.13;;;;;;;3.78;100.00;98061.19;2578421;28;20046;-84
2023/04/22 04:21:38;;;;;;;16.73;9.52;;;;;;;3.79;100.00;98073.25;2578542;28;20050;-81
2023/04/22 04:22:55;;;;;;;15.38;9.07;;;;;;;3.80;100.00;98061.16;2579238;28;20054;-79
2023/04/22 04:24:10;;;;;;;14.45;8.07;;;;;;;3.98;100.00;98067.94;2578576;28;20054;-79
2023/04/22 04:25:28;;;;;;;14.75;8.50;;;;;;;4.05;100.00;98063.56;2579051;28;20047;-79
2023/04/22 04:26:43;;;;;;;16.67;8.80;;;;;;;4.07;100.00;98067.88;2578647;28;20121;-79
2023/04/22 04:28:00;;;;;;;15.18;9.18;;;;;;;4.05;100.00;98069.63;2578501;28;20052;-79
2023/04/22 04:29:19;;;;;;;15.25;8.57;;;;;;;4.03;100.00;98071.34;2578661;28;20046;-78
2023/04/22 04:30:35;;;;;;;15.75;8.80;;;;;;;4.00;100.00;98066.19;2579520;28;20213;-79
2023/04/22 04:31:50;;;;;;;16.70;9.38;;;;;;;4.09;100.00;98068.72;2578294;28;20074;-79
2023/04/22 04:33:06;;;;;;;17.55;9.38;;;;;;;4.19;100.00;98066.03;2579241;28;20046;-80
2023/04/22 04:34:22;;;;;;;16.05;8.55;;;;;;;4.08;100.00;98064.41;2578603;28;20833;-79
2023/04/22 04:35:38;;;;;;;18.55;10.02;;;;;;;4.14;100.00;98073.00;2578699;28;20051;-79
2023/04/22 04:36:54;;;;;;;19.92;10.77;;;;;;;4.09;100.00;98068.72;2578969;28;20501;-79
2023/04/22 04:38:11;;;;;;;22.83;10.50;;;;;;;3.93;100.00;98061.94;2578899;28;20085;-79
2023/04/22 04:39:27;;;;;;;18.45;10.13;;;;;;;3.88;100.00;98074.03;2578299;28;20128;-79
2023/04/22 04:40:44;;;;;;;19.73;10.43;;;;;;;3.98;100.00;98070.53;2579186;28;20051;-80
2023/04/22 04:42:00;;;;;;;19.48;9.93;;;;;;;4.09;100.00;98067.84;2578316;28;20542;-79
2023/04/22 04:43:15;;;;;;;16.90;9.52;;;;;;;4.14;100.00;98073.88;2578170;28;20129;-79
2023/04/22 04:44:31;;;;;;;19.63;11.38;;;;;;;4.22;100.00;98072.06;2578907;28;20042;-79
2023/04/22 04:45:47;;;;;;;18.38;9.57;;;;;;;4.34;100.00;98076.28;2578442;28;20477;-79
2023/04/22 04:47:02;;;;;;;16.85;9.38;;;;;;;4.35;100.00;98070.25;2578461;28;20047;-79
2023/04/22 04:48:23;;;;;;;13.70;8.82;;;;;;;4.44;100.00;98073.59;2579239;28;20058;-79
2023/04/22 04:49:39;;;;;;;18.45;10.18;;;;;;;4.47;100.00;98071.84;2578408;28;20114;-80
2023/04/22 04:50:55;;;;;;;15.68;9.38;;;;;;;4.50;100.00;98077.00;2578749;28;20049;-79
2023/04/22 04:52:11;;;;;;;19.70;10.13;;;;;;;4.45;100.00;98077.91;2578665;28;20144;-79
2023/04/22 04:53:26;;;;;;;15.65;9.43;;;;;;;4.54;100.00;98077.84;2578981;28;20181;-79
2023/04/22 04:54:42;;;;;;;14.82;9.68;;;;;;;4.48;100.00;98077.91;2578655;28;20046;-79
2023/04/22 04:55:57;;;;;;;19.10;9.85;;;;;;;4.35;100.00;98077.13;2578863;28;20046;-79
2023/04/22 04:57:13;;;;;;;21.75;11.82;;;;;;;4.17;100.00;98079.03;2578507;28;20073;-79
2023/04/22 04:58:28;;;;;;;17.23;10.52;;;;;;;4.18;100.00;98079.88;2578427;28;20058;-80
2023/04/22 04:59:44;;;;;;;23.67;12.05;;;;;;;4.14;100.00;98078.19;2578762;28;20073;-79
2023/04/22 05:01:00;;;;;;;25.23;12.20;;;;;;;4.25;100.00;98076.38;2578371;28;20391;-79
2023/04/22 05:02:15;;;;;;;22.70;12.45;;;;;;;4.35;100.00;98082.31;2578571;28;20050;-79
2023/04/22 05:03:31;;;;;;;22.30;11.60;;;;;;;4.46;100.00;98079.63;2577614;28;20358;-79
2023/04/22 05:04:46;;;;;;;21.55;11.13;;;;;;;4.34;100.00;98073.69;2578374;28;20050;-79
2023/04/22 05:06:03;;;;;;;20.75;11.82;;;;;;;4.30;100.00;98079.75;2578333;28;20058;-79
2023/04/22 05:07:19;;;;;;;19.88;11.40;;;;;;;4.44;100.00;98078.78;2579030;28;20491;-79
2023/04/22 05:08:35;;;;;;;23.73;11.45;;;;;;;4.20;100.00;98081.59;2578499;28;20617;-79
2023/04/22 05:09:50;;;;;;;21.73;11.52;;;;;;;4.29;100.00;98078.06;2578818;28;20054;-79
2023/04/22 05:11:06;;;;;;;23.30;10.65;;;;;;;4.40;100.00;98080.56;2578050;28;20141;-79
2023/04/22 05:12:21;;;;;;;20.35;10.38;;;;;;;4.55;100.00;98082.16;2578641;28;20054;-78
2023/04/22 05:13:37;;;;;;;18.00;9.35;;;;;;;4.65;100.00;98077.72;2578853;28;20058;-78
2023/04/22 05:14:52;;;;;;;14.50;8.70;;;;;;;4.78;100.00;98079.31;2578536;28;20476;-79
2023/04/22 05:16:08;;;;;;;16.30;8.07;;;;;;;4.91;100.00;98080.06;2578319;28;20137;-80
2023/04/22 05:17:24;;;;;;;17.23;8.13;;;;;;;4.88;100.00;98081.81;2578880;28;20049;-79
2023/04/22 05:18:39;;;;;;;18.42;8.70;;;;;;;5.02;100.00;98079.94;2578318;28;20117;-79
2023/04/22 05:19:55;;;;;;;22.35;8.68;;;;;;;5.25;100.00;98093.50;2578689;28;20805;-79
2023/04/22 05:21:10;;;;;;;16.05;8.85;;;;;;;5.26;100.00;98084.84;2578299;28;20080;-79
2023/04/22 05:22:26;;;;;;;17.38;9.32;;;;;;;5.17;100.00;98089.28;2578571;28;20053;-79
2023/04/22 05:23:41;;;;;;;15.52;8.93;;;;;;;5.17;100.00;98086.69;2578496;28;20086;-79
2023/04/22 05:24:57;;;;;;;18.02;8.68;;;;;;;5.03;100.00;98084.25;2578634;28;20494;-79
2023/04/22 05:26:12;;;;;;;14.52;8.82;;;;;;;5.27;100.00;98089.16;2577820;28;20057;-79
2023/04/22 05:27:29;;;;;;;14.88;8.77;;;;;;;5.27;100.00;98083.97;2578853;28;20077;-79
2023/04/22 05:28:44;;;;;;;15.02;8.90;;;;;;;5.36;100.00;98084.69;2577989;28;20046;-79
2023/04/22 05:30:00;;;;;;;15.50;8.75;;;;;;;5.41;100.00;98089.00;2578218;28;20044;-79
2023/04/22 05:31:16;;;;;;;15.23;8.70;;;;;;;5.36;100.00;98086.47;2578463;28;20046;-81
2023/04/22 05:32:31;;;;;;;19.30;9.05;;;;;;;5.52;100.00;98079.34;2578086;28;20498;-79
2023/04/22 05:33:47;;;;;;;15.95;8.70;;;;;;;5.32;100.00;98089.97;2578764;28;20053;-79
2023/04/22 05:35:03;;;;;;;16.80;8.48;;;;;;;5.27;100.00;98089.16;2577597;28;20061;-79
2023/04/22 05:36:19;;;;;;;13.52;8.40;;;;;;;5.36;100.00;98095.09;2578724;28;20046;-80
2023/04/22 05:37:34;;;;;;;13.95;8.43;;;;;;;5.36;100.00;98091.66;2578278;28;20042;-85
2023/04/22 05:38:50;;;;;;;15.23;9.02;;;;;;;5.37;100.00;98093.38;2577711;28;20053;-83
2023/04/22 05:40:06;;;;;;;16.98;9.18;;;;;;;5.46;100.00;98095.84;2577596;28;20044;-79
2023/04/22 05:41:22;;;;;;;15.05;8.82;;;;;;;5.51;100.00;98093.16;2578342;28;20061;-79
2023/04/22 05:42:37;;;;;;;20.52;9.07;;;;;;;5.46;100.00;98090.66;2577775;28;20133;-80
2023/04/22 05:43:53;;;;;;;17.80;8.60;;;;;;;5.69;100.00;98091.22;2578409;28;20057;-79
2023/04/22 05:45:09;;;;;;;15.30;9.40;;;;;;;5.63;100.00;98087.81;2577616;28;20054;-80
2023/04/22 05:46:24;;;;;;;17.38;8.95;;;;;;;5.64;100.00;98086.09;2578251;28;20502;-80
2023/04/22 05:47:40;;;;;;;19.48;9.07;;;;;;;5.83;100.00;98089.28;2578251;28;20050;-79
2023/04/22 05:48:55;;;;;;;19.05;9.70;;;;;;;5.89;100.00;98093.53;2578297;28;20047;-80
2023/04/22 05:50:11;;;;;;;14.45;8.65;;;;;;;5.96;100.00;98089.94;2578017;28;20641;-80
2023/04/22 05:51:26;;;;;;;13.43;8.43;;;;;;;5.76;100.00;98091.13;2578348;28;20046;-79
2023/04/22 05:52:42;;;;;;;15.73;8.82;;;;;;;6.06;100.00;98091.56;2577562;28;20089;-80